createdAt,value
2023-01-28T00:00:23.527Z,100511.44
2023-01-28T00:00:55.611Z,100515.81
2023-01-28T00:01:27.754Z,100509.81
2023-01-28T00:01:59.451Z,100521.03
2023-01-28T00:02:31.874Z,100512.44
2023-01-28T00:03:03.567Z,100513.31
2023-01-28T00:03:35.604Z,100511.59
2023-01-28T00:04:07.298Z,100521.88
2023-01-28T00:04:39.966Z,100511.56
2023-01-28T00:05:12.216Z,100515.88
2023-01-28T00:05:44.434Z,100519.25
2023-01-28T00:06:16.103Z,100515.00
2023-01-28T00:06:47.745Z,100516.72
2023-01-28T00:07:19.374Z,100519.22
2023-01-28T00:07:52.199Z,100520.19
2023-01-28T00:08:23.861Z,100516.75
2023-01-28T00:09:03.434Z,100526.16
2023-01-28T00:09:35.064Z,100515.06
2023-01-28T00:10:07.192Z,100526.25
2023-01-28T00:10:39.772Z,100528.00
2023-01-28T00:11:13.492Z,100526.25
2023-01-28T00:11:45.253Z,100524.56
2023-01-28T00:12:17.789Z,100522.00
2023-01-28T00:12:52.784Z,100524.63
2023-01-28T00:13:24.402Z,100523.72
2023-01-28T00:13:57.733Z,100518.50
2023-01-28T00:14:29.724Z,100526.25
2023-01-28T00:15:03.303Z,100522.06
2023-01-28T00:15:34.948Z,100524.66
2023-01-28T00:16:08.999Z,100524.59
2023-01-28T00:16:40.692Z,100522.88
2023-01-28T00:17:12.707Z,100519.41
2023-01-28T00:17:44.431Z,100522.81
2023-01-28T00:18:16.108Z,100522.00
2023-01-28T00:18:47.810Z,100522.88
2023-01-28T00:19:19.448Z,100521.09
2023-01-28T00:19:51.097Z,100520.34
2023-01-28T00:20:25.694Z,100521.22
2023-01-28T00:21:26.598Z,100522.91
2023-01-28T00:21:58.257Z,100517.78
2023-01-28T00:22:29.887Z,100525.50
2023-01-28T00:23:01.753Z,100524.69
2023-01-28T00:23:36.593Z,100525.53
2023-01-28T00:24:09.670Z,100526.41
2023-01-28T00:24:41.404Z,100528.13
2023-01-28T00:25:13.466Z,100525.56
2023-01-28T00:25:45.291Z,100526.41
2023-01-28T00:26:16.924Z,100524.72
2023-01-28T00:26:48.566Z,100523.84
2023-01-28T00:27:22.852Z,100520.41
2023-01-28T00:27:54.488Z,100525.47
2023-01-28T00:28:26.259Z,100520.41
2023-01-28T00:28:57.929Z,100523.91
2023-01-28T00:29:31.967Z,100519.56
2023-01-28T00:30:03.923Z,100523.91
2023-01-28T00:30:40.642Z,100519.69
2023-01-28T00:31:26.204Z,100522.28
2023-01-28T00:31:57.995Z,100520.56
2023-01-28T00:32:29.702Z,100524.00
2023-01-28T00:33:01.335Z,100524.81
2023-01-28T00:33:33.164Z,100525.75
2023-01-28T00:34:04.900Z,100525.78
2023-01-28T00:34:36.620Z,100530.09
2023-01-28T00:35:08.649Z,100525.72
2023-01-28T00:35:40.276Z,100522.31
2023-01-28T00:36:13.456Z,100527.38
2023-01-28T00:36:45.299Z,100526.56
2023-01-28T00:37:16.976Z,100528.38
2023-01-28T00:37:50.831Z,100523.25
2023-01-28T00:38:22.471Z,100522.38
2023-01-28T00:39:01.739Z,100529.25
2023-01-28T00:39:33.492Z,100534.38
2023-01-28T00:40:05.511Z,100533.53
2023-01-28T00:40:39.428Z,100529.22
2023-01-28T00:41:16.676Z,100536.00
2023-01-28T00:41:48.712Z,100528.31
2023-01-28T00:42:21.966Z,100528.31
2023-01-28T00:42:54.303Z,100528.31
2023-01-28T00:43:25.936Z,100530.00
2023-01-28T00:43:58.600Z,100529.25
2023-01-28T00:44:30.265Z,100530.06
2023-01-28T00:45:01.889Z,100533.44
2023-01-28T00:45:33.566Z,100531.81
2023-01-28T00:46:09.918Z,100531.81
2023-01-28T00:46:44.382Z,100532.63
2023-01-28T00:47:17.994Z,100534.34
2023-01-28T00:47:49.683Z,100529.19
2023-01-28T00:48:24.412Z,100537.69
2023-01-28T00:48:56.189Z,100533.38
2023-01-28T00:49:27.853Z,100533.38
2023-01-28T00:49:59.484Z,100533.38
2023-01-28T00:50:31.093Z,100536.78
2023-01-28T00:51:03.576Z,100536.75
2023-01-28T00:51:35.332Z,100538.44
2023-01-28T00:52:06.988Z,100531.59
2023-01-28T00:52:38.615Z,100535.94
2023-01-28T00:53:10.230Z,100540.25
2023-01-28T00:53:42.133Z,100531.69
2023-01-28T00:54:14.610Z,100540.34
2023-01-28T00:54:46.273Z,100542.94
2023-01-28T00:55:18.130Z,100536.94
2023-01-28T00:55:49.776Z,100542.06
2023-01-28T00:56:21.457Z,100536.00
2023-01-28T00:56:53.631Z,100542.84
2023-01-28T00:57:25.255Z,100543.72
2023-01-28T00:57:56.947Z,100541.16
2023-01-28T00:58:28.798Z,100547.19
2023-01-28T00:59:02.456Z,100548.03
2023-01-28T00:59:34.088Z,100547.16
2023-01-28T01:00:14.018Z,100548.03
2023-01-28T01:00:46.143Z,100547.25
2023-01-28T01:01:21.708Z,100548.88
2023-01-28T01:01:53.399Z,100541.97
2023-01-28T01:02:27.318Z,100546.25
2023-01-28T01:03:00.893Z,100545.41
2023-01-28T01:03:32.547Z,100545.41
2023-01-28T01:04:06.802Z,100551.44
2023-01-28T01:04:47.863Z,100550.59
2023-01-28T01:05:19.528Z,100547.16
2023-01-28T01:05:51.177Z,100550.59
2023-01-28T01:06:23.833Z,100552.28
2023-01-28T01:06:55.522Z,100554.88
2023-01-28T01:07:34.802Z,100548.06
2023-01-28T01:08:09.190Z,100548.03
2023-01-28T01:08:43.024Z,100548.03
2023-01-28T01:09:14.760Z,100548.91
2023-01-28T01:09:49.256Z,100547.16
2023-01-28T01:10:23.731Z,100547.16
2023-01-28T01:10:59.181Z,100548.91
2023-01-28T01:11:30.999Z,100549.75
2023-01-28T01:12:03.931Z,100548.06
2023-01-28T01:12:35.728Z,100550.63
2023-01-28T01:13:08.313Z,100549.72
2023-01-28T01:13:40.055Z,100550.53
2023-01-28T01:14:11.721Z,100549.72
2023-01-28T01:14:50.785Z,100548.00
2023-01-28T01:15:22.485Z,100537.69
2023-01-28T01:16:03.087Z,100542.81
2023-01-28T01:16:36.253Z,100545.34
2023-01-28T01:17:07.932Z,100549.69
2023-01-28T01:17:45.362Z,100547.94
2023-01-28T01:18:22.310Z,100546.22
2023-01-28T01:18:55.123Z,100556.44
2023-01-28T01:19:31.035Z,100552.19
2023-01-28T01:20:03.379Z,100556.47
2023-01-28T01:20:42.204Z,100547.06
2023-01-28T01:21:17.629Z,100547.94
2023-01-28T01:21:50.779Z,100548.81
2023-01-28T01:22:22.923Z,100549.75
2023-01-28T01:22:59.011Z,100550.59
2023-01-28T01:23:31.452Z,100551.41
2023-01-28T01:24:03.198Z,100554.84
2023-01-28T01:24:34.902Z,100551.44
2023-01-28T01:25:07.444Z,100554.06
2023-01-28T01:25:40.151Z,100546.34
2023-01-28T01:26:14.287Z,100557.44
2023-01-28T01:26:45.963Z,100552.25
2023-01-28T01:27:17.621Z,100555.66
2023-01-28T01:27:51.011Z,100548.81
2023-01-28T01:28:25.039Z,100552.22
2023-01-28T01:28:56.724Z,100549.63
2023-01-28T01:29:28.919Z,100551.28
2023-01-28T01:30:02.743Z,100548.78
2023-01-28T01:30:34.378Z,100547.06
2023-01-28T01:31:12.751Z,100549.63
2023-01-28T01:31:45.237Z,100557.38
2023-01-28T01:32:18.744Z,100553.91
2023-01-28T01:32:50.391Z,100551.34
2023-01-28T01:33:23.661Z,100545.31
2023-01-28T01:33:55.375Z,100547.00
2023-01-28T01:34:26.990Z,100545.25
2023-01-28T01:34:58.903Z,100543.53
2023-01-28T01:35:30.700Z,100545.25
2023-01-28T01:36:02.906Z,100552.06
2023-01-28T01:36:34.597Z,100546.03
2023-01-28T01:37:08.477Z,100547.81
2023-01-28T01:37:42.757Z,100552.88
2023-01-28T01:38:14.412Z,100556.31
2023-01-28T01:38:47.707Z,100552.03
2023-01-28T01:39:19.399Z,100549.47
2023-01-28T01:39:51.082Z,100546.88
2023-01-28T01:40:22.739Z,100548.63
2023-01-28T01:41:01.395Z,100556.31
2023-01-28T01:41:33.281Z,100548.59
2023-01-28T01:42:04.967Z,100551.13
2023-01-28T01:42:36.733Z,100550.22
2023-01-28T01:43:17.234Z,100552.81
2023-01-28T01:43:58.447Z,100550.28
2023-01-28T01:45:01.663Z,100548.47
2023-01-28T01:45:35.338Z,100551.06
2023-01-28T01:46:07.071Z,100551.03
2023-01-28T01:46:45.670Z,100554.50
2023-01-28T01:47:21.878Z,100548.56
2023-01-28T01:48:06.052Z,100555.28
2023-01-28T01:48:37.872Z,100553.59
2023-01-28T01:49:18.254Z,100556.19
2023-01-28T01:49:50.322Z,100554.50
2023-01-28T01:50:27.801Z,100553.59
2023-01-28T01:51:11.094Z,100554.44
2023-01-28T01:51:46.372Z,100557.03
2023-01-28T01:52:25.217Z,100551.88
2023-01-28T01:53:02.856Z,100556.16
2023-01-28T01:53:39.688Z,100555.28
2023-01-28T01:54:11.580Z,100558.72
2023-01-28T01:54:50.672Z,100564.72
2023-01-28T01:55:27.535Z,100557.88
2023-01-28T01:56:05.099Z,100558.72
2023-01-28T01:56:42.560Z,100557.84
2023-01-28T01:57:20.912Z,100567.31
2023-01-28T01:57:56.743Z,100561.41
2023-01-28T01:58:35.654Z,100563.13
2023-01-28T01:59:12.982Z,100563.06
2023-01-28T01:59:45.000Z,100569.03
2023-01-28T02:00:19.764Z,100564.84
2023-01-28T02:00:51.595Z,100562.28
2023-01-28T02:01:28.076Z,100564.84
2023-01-28T02:02:07.787Z,100562.25
2023-01-28T02:02:47.407Z,100565.66
2023-01-28T02:03:29.220Z,100560.44
2023-01-28T02:04:12.279Z,100570.72
2023-01-28T02:04:45.114Z,100567.31
2023-01-28T02:05:20.482Z,100562.16
2023-01-28T02:05:52.254Z,100560.44
2023-01-28T02:06:24.629Z,100557.03
2023-01-28T02:07:03.930Z,100561.31
2023-01-28T02:07:37.640Z,100564.69
2023-01-28T02:08:24.138Z,100556.94
2023-01-28T02:09:00.587Z,100557.78
2023-01-28T02:09:38.526Z,100554.34
2023-01-28T02:10:12.248Z,100557.78
2023-01-28T02:10:45.639Z,100561.25
2023-01-28T02:11:18.464Z,100562.16
2023-01-28T02:11:54.523Z,100558.78
2023-01-28T02:12:37.813Z,100559.69
2023-01-28T02:13:09.736Z,100564.75
2023-01-28T02:13:52.236Z,100559.59
2023-01-28T02:14:31.413Z,100561.31
2023-01-28T02:15:10.107Z,100560.41
2023-01-28T02:15:44.458Z,100556.16
2023-01-28T02:16:19.082Z,100560.56
2023-01-28T02:16:50.966Z,100568.34
2023-01-28T02:17:23.624Z,100564.88
2023-01-28T02:17:57.015Z,100562.28
2023-01-28T02:18:31.402Z,100564.91
2023-01-28T02:19:03.530Z,100561.44
2023-01-28T02:19:44.283Z,100567.44
2023-01-28T02:20:47.862Z,100563.06
2023-01-28T02:21:35.001Z,100558.75
2023-01-28T02:22:21.612Z,100559.66
2023-01-28T02:23:14.356Z,100564.75
2023-01-28T02:24:08.805Z,100565.66
2023-01-28T02:24:55.601Z,100559.72
2023-01-28T02:26:06.635Z,100562.31
2023-01-28T02:26:57.830Z,100565.72
2023-01-28T02:27:48.160Z,100564.84
2023-01-28T02:28:47.699Z,100567.41
2023-01-28T02:29:57.174Z,100562.34
2023-01-28T02:30:35.501Z,100560.69
2023-01-28T02:31:15.063Z,100552.13
2023-01-28T02:32:03.604Z,100562.41
2023-01-28T02:32:50.606Z,100562.38
2023-01-28T02:33:54.643Z,100552.13
2023-01-28T02:34:41.358Z,100552.09
2023-01-28T02:35:29.794Z,100551.19
2023-01-28T02:36:24.195Z,100551.25
2023-01-28T02:37:04.815Z,100558.91
2023-01-28T02:37:50.483Z,100555.44
2023-01-28T02:38:33.463Z,100552.13
2023-01-28T02:39:32.374Z,100548.72
2023-01-28T02:40:17.408Z,100558.13
2023-01-28T02:41:03.148Z,100555.47
2023-01-28T02:41:42.856Z,100552.13
2023-01-28T02:42:29.128Z,100555.59
2023-01-28T02:43:00.859Z,100555.50
2023-01-28T02:43:45.974Z,100549.53
2023-01-28T02:44:18.297Z,100552.94
2023-01-28T02:44:52.344Z,100550.41
2023-01-28T02:45:52.872Z,100555.53
2023-01-28T02:46:45.920Z,100558.97
2023-01-28T02:47:36.238Z,100552.06
2023-01-28T02:48:07.898Z,100557.25
2023-01-28T02:48:39.555Z,100553.78
2023-01-28T02:49:22.902Z,100552.94
2023-01-28T02:49:58.615Z,100555.53
2023-01-28T02:50:42.572Z,100552.06
2023-01-28T02:51:34.797Z,100553.81
2023-01-28T02:52:15.442Z,100559.81
2023-01-28T02:53:31.549Z,100548.69
2023-01-28T02:54:28.446Z,100551.28
2023-01-28T02:55:30.657Z,100560.63
2023-01-28T02:56:21.084Z,100555.50
2023-01-28T02:56:55.357Z,100554.69
2023-01-28T02:57:47.832Z,100553.84
2023-01-28T02:58:33.719Z,100553.81
2023-01-28T02:59:47.466Z,100554.69
2023-01-28T03:00:46.354Z,100560.66
2023-01-28T03:01:26.174Z,100552.91
2023-01-28T03:02:20.439Z,100555.41
2023-01-28T03:03:07.287Z,100555.41
2023-01-28T03:04:02.934Z,100548.59
2023-01-28T03:05:06.049Z,100559.69
2023-01-28T03:06:03.345Z,100554.53
2023-01-28T03:06:43.898Z,100551.16
2023-01-28T03:07:18.878Z,100553.72
2023-01-28T03:07:52.123Z,100549.53
2023-01-28T03:08:43.004Z,100561.44
2023-01-28T03:09:23.716Z,100559.72
2023-01-28T03:10:00.628Z,100555.44
2023-01-28T03:10:35.234Z,100558.03
2023-01-28T03:11:25.490Z,100555.44
2023-01-28T03:12:34.313Z,100550.28
2023-01-28T03:13:26.593Z,100558.88
2023-01-28T03:14:16.757Z,100559.81
2023-01-28T03:15:18.712Z,100552.91
2023-01-28T03:16:09.370Z,100558.91
2023-01-28T03:17:00.900Z,100553.81
2023-01-28T03:18:17.108Z,100563.22
2023-01-28T03:19:13.921Z,100557.16
2023-01-28T03:20:05.364Z,100562.28
2023-01-28T03:21:13.240Z,100557.16
2023-01-28T03:22:05.889Z,100561.44
2023-01-28T03:23:02.263Z,100559.72
2023-01-28T03:24:19.692Z,100561.41
2023-01-28T03:25:12.376Z,100564.00
2023-01-28T03:26:07.388Z,100560.56
2023-01-28T03:27:29.680Z,100558.88
2023-01-28T03:28:24.421Z,100553.81
2023-01-28T03:29:23.167Z,100560.59
2023-01-28T03:30:19.584Z,100558.00
2023-01-28T03:31:15.030Z,100559.66
2023-01-28T03:32:05.401Z,100555.44
2023-01-28T03:32:58.687Z,100555.50
2023-01-28T03:33:51.418Z,100562.44
2023-01-28T03:34:42.101Z,100556.44
2023-01-28T03:35:37.057Z,100552.13
2023-01-28T03:36:31.413Z,100554.69
2023-01-28T03:37:04.386Z,100558.09
2023-01-28T03:37:36.225Z,100555.53
2023-01-28T03:38:22.941Z,100557.28
2023-01-28T03:38:54.784Z,100552.09
2023-01-28T03:39:29.242Z,100557.28
2023-01-28T03:40:07.993Z,100559.03
2023-01-28T03:40:51.771Z,100556.44
2023-01-28T03:41:26.017Z,100559.88
2023-01-28T03:42:02.171Z,100559.94
2023-01-28T03:42:33.947Z,100559.09
2023-01-28T03:43:05.589Z,100563.31
2023-01-28T03:43:37.634Z,100562.50
2023-01-28T03:44:28.024Z,100564.28
2023-01-28T03:45:01.791Z,100565.09
2023-01-28T03:45:33.438Z,100563.41
2023-01-28T03:46:06.464Z,100564.28
2023-01-28T03:46:39.552Z,100565.97
2023-01-28T03:47:12.169Z,100565.13
2023-01-28T03:47:46.759Z,100561.00
2023-01-28T03:48:24.056Z,100565.25
2023-01-28T03:48:55.718Z,100559.22
2023-01-28T03:49:27.417Z,100563.50
2023-01-28T03:50:00.373Z,100564.34
2023-01-28T03:50:34.885Z,100564.34
2023-01-28T03:51:06.527Z,100566.88
2023-01-28T03:51:38.208Z,100559.28
2023-01-28T03:52:09.908Z,100564.47
2023-01-28T03:52:41.532Z,100564.44
2023-01-28T03:53:16.439Z,100572.97
2023-01-28T03:53:48.350Z,100565.22
2023-01-28T03:54:19.984Z,100567.88
2023-01-28T03:54:55.076Z,100572.19
2023-01-28T03:55:26.755Z,100572.13
2023-01-28T03:55:58.545Z,100571.28
2023-01-28T03:56:40.102Z,100569.59
2023-01-28T03:57:11.767Z,100567.13
2023-01-28T03:57:44.970Z,100565.34
2023-01-28T03:58:18.487Z,100567.78
2023-01-28T03:58:59.571Z,100568.63
2023-01-28T03:59:31.257Z,100567.81
2023-01-28T04:00:03.063Z,100566.19
2023-01-28T04:00:42.016Z,100563.63
2023-01-28T04:01:14.252Z,100573.91
2023-01-28T04:01:46.052Z,100573.03
2023-01-28T04:02:21.978Z,100568.72
2023-01-28T04:02:53.743Z,100561.84
2023-01-28T04:03:26.662Z,100570.34
2023-01-28T04:03:59.099Z,100570.38
2023-01-28T04:04:35.150Z,100573.81
2023-01-28T04:05:13.959Z,100569.59
2023-01-28T04:05:57.698Z,100562.81
2023-01-28T04:06:29.371Z,100567.03
2023-01-28T04:07:01.073Z,100567.78
2023-01-28T04:07:33.712Z,100566.06
2023-01-28T04:08:05.413Z,100565.22
2023-01-28T04:08:39.540Z,100567.00
2023-01-28T04:09:11.214Z,100556.81
2023-01-28T04:09:44.705Z,100566.19
2023-01-28T04:10:18.519Z,100559.28
2023-01-28T04:10:57.520Z,100564.47
2023-01-28T04:11:29.204Z,100559.44
2023-01-28T04:12:00.849Z,100561.94
2023-01-28T04:12:32.480Z,100567.91
2023-01-28T04:13:04.181Z,100567.91
2023-01-28T04:13:35.854Z,100568.69
2023-01-28T04:14:07.489Z,100563.53
2023-01-28T04:14:40.280Z,100561.88
2023-01-28T04:15:19.222Z,100566.19
2023-01-28T04:15:53.950Z,100560.22
2023-01-28T04:16:25.625Z,100562.78
2023-01-28T04:16:57.683Z,100563.66
2023-01-28T04:17:29.297Z,100567.97
2023-01-28T04:18:01.001Z,100566.31
2023-01-28T04:18:35.034Z,100566.31
2023-01-28T04:19:06.688Z,100562.00
2023-01-28T04:19:38.663Z,100567.06
2023-01-28T04:20:11.090Z,100572.19
2023-01-28T04:20:42.741Z,100565.34
2023-01-28T04:21:14.827Z,100567.97
2023-01-28T04:21:48.991Z,100570.50
2023-01-28T04:22:20.631Z,100568.03
2023-01-28T04:22:52.546Z,100558.59
2023-01-28T04:23:24.242Z,100562.88
2023-01-28T04:23:56.439Z,100568.03
2023-01-28T04:24:29.923Z,100563.69
2023-01-28T04:25:04.636Z,100572.16
2023-01-28T04:25:36.303Z,100569.66
2023-01-28T04:26:08.539Z,100568.03
2023-01-28T04:26:40.280Z,100565.47
2023-01-28T04:27:11.916Z,100577.44
2023-01-28T04:27:43.607Z,100564.59
2023-01-28T04:28:15.262Z,100568.03
2023-01-28T04:28:47.016Z,100572.34
2023-01-28T04:29:25.779Z,100578.34
2023-01-28T04:29:57.480Z,100580.88
2023-01-28T04:30:29.217Z,100577.47
2023-01-28T04:31:06.102Z,100578.34
2023-01-28T04:31:37.827Z,100574.00
2023-01-28T04:32:11.532Z,100578.31
2023-01-28T04:32:43.430Z,100579.97
2023-01-28T04:33:15.400Z,100579.13
2023-01-28T04:33:49.448Z,100573.94
2023-01-28T04:34:21.074Z,100577.31
2023-01-28T04:34:52.705Z,100579.00
2023-01-28T04:35:26.379Z,100579.81
2023-01-28T04:35:58.018Z,100586.63
2023-01-28T04:36:29.707Z,100582.34
2023-01-28T04:37:01.367Z,100579.78
2023-01-28T04:37:33.011Z,100580.66
2023-01-28T04:38:04.666Z,100584.03
2023-01-28T04:38:39.204Z,100579.81
2023-01-28T04:39:10.848Z,100584.09
2023-01-28T04:39:42.534Z,100582.34
2023-01-28T04:40:14.263Z,100582.31
2023-01-28T04:40:49.797Z,100579.78
2023-01-28T04:41:21.519Z,100584.84
2023-01-28T04:41:53.158Z,100583.97
2023-01-28T04:42:24.856Z,100586.53
2023-01-28T04:42:57.579Z,100587.41
2023-01-28T04:43:29.267Z,100584.91
2023-01-28T04:44:00.997Z,100580.59
2023-01-28T04:44:32.651Z,100585.69
2023-01-28T04:45:05.130Z,100588.25
2023-01-28T04:45:36.798Z,100579.78
2023-01-28T04:46:08.537Z,100583.22
2023-01-28T04:46:41.898Z,100581.50
2023-01-28T04:47:15.957Z,100581.50
2023-01-28T04:47:47.587Z,100582.34
2023-01-28T04:48:21.703Z,100580.66
2023-01-28T04:48:55.655Z,100578.94
2023-01-28T04:49:27.318Z,100578.16
2023-01-28T04:49:58.991Z,100584.19
2023-01-28T04:50:32.250Z,100579.03
2023-01-28T04:51:04.645Z,100581.59
2023-01-28T04:51:36.363Z,100581.59
2023-01-28T04:52:08.030Z,100586.72
2023-01-28T04:52:39.793Z,100581.50
2023-01-28T04:53:12.152Z,100588.41
2023-01-28T04:53:43.776Z,100583.28
2023-01-28T04:54:17.347Z,100584.94
2023-01-28T04:54:48.998Z,100579.88
2023-01-28T04:55:22.958Z,100579.88
2023-01-28T04:55:56.751Z,100583.25
2023-01-28T04:56:30.598Z,100584.09
2023-01-28T04:57:02.332Z,100590.94
2023-01-28T04:57:36.283Z,100586.63
2023-01-28T04:58:15.601Z,100583.22
2023-01-28T04:58:47.272Z,100585.75
2023-01-28T04:59:19.972Z,100592.63
2023-01-28T04:59:51.704Z,100582.38
2023-01-28T05:00:26.030Z,100585.88
2023-01-28T05:00:59.992Z,100590.09
2023-01-28T05:01:31.634Z,100593.50
2023-01-28T05:02:03.438Z,100591.00
2023-01-28T05:02:35.117Z,100590.16
2023-01-28T05:03:09.121Z,100599.59
2023-01-28T05:03:42.845Z,100593.59
2023-01-28T05:04:16.501Z,100595.28
2023-01-28T05:04:48.123Z,100594.53
2023-01-28T05:05:19.966Z,100592.91
2023-01-28T05:05:52.051Z,100597.16
2023-01-28T05:06:23.717Z,100590.28
2023-01-28T05:06:55.434Z,100592.81
2023-01-28T05:07:27.215Z,100593.72
2023-01-28T05:07:59.616Z,100591.13
2023-01-28T05:08:31.328Z,100595.44
2023-01-28T05:09:05.001Z,100597.13
2023-01-28T05:09:36.966Z,100599.63
2023-01-28T05:10:09.134Z,100591.94
2023-01-28T05:10:40.769Z,100599.59
2023-01-28T05:11:15.556Z,100601.31
2023-01-28T05:11:47.795Z,100597.13
2023-01-28T05:12:20.893Z,100597.97
2023-01-28T05:12:54.986Z,100600.56
2023-01-28T05:13:26.652Z,100601.31
2023-01-28T05:13:58.322Z,100603.00
2023-01-28T05:14:29.950Z,100599.69
2023-01-28T05:15:01.790Z,100604.84
2023-01-28T05:15:33.445Z,100603.94
2023-01-28T05:16:06.094Z,100604.75
2023-01-28T05:16:37.817Z,100611.56
2023-01-28T05:17:09.601Z,100603.00
2023-01-28T05:17:42.870Z,100608.91
2023-01-28T05:18:14.533Z,100606.31
2023-01-28T05:18:48.111Z,100604.66
2023-01-28T05:19:20.084Z,100613.22
2023-01-28T05:19:53.793Z,100606.34
2023-01-28T05:20:25.681Z,100608.94
2023-01-28T05:20:57.383Z,100609.81
2023-01-28T05:21:29.111Z,100606.44
2023-01-28T05:22:00.767Z,100606.44
2023-01-28T05:22:32.662Z,100602.97
2023-01-28T05:23:05.606Z,100605.50
2023-01-28T05:23:37.238Z,100614.91
2023-01-28T05:24:09.048Z,100608.91
2023-01-28T05:24:44.190Z,100613.25
2023-01-28T05:25:16.149Z,100606.41
2023-01-28T05:25:48.480Z,100609.78
2023-01-28T05:26:20.697Z,100611.53
2023-01-28T05:26:52.331Z,100611.50
2023-01-28T05:27:24.066Z,100609.84
2023-01-28T05:27:55.749Z,100609.84
2023-01-28T05:28:27.402Z,100608.94
2023-01-28T05:28:59.085Z,100605.56
2023-01-28T05:29:33.129Z,100609.88
2023-01-28T05:30:06.682Z,100606.59
2023-01-28T05:30:41.568Z,100605.72
2023-01-28T05:31:13.227Z,100603.97
2023-01-28T05:31:44.854Z,100609.16
2023-01-28T05:32:19.131Z,100604.03
2023-01-28T05:32:57.207Z,100603.16
2023-01-28T05:33:37.461Z,100603.16
2023-01-28T05:34:09.073Z,100603.19
2023-01-28T05:34:40.754Z,100608.34
2023-01-28T05:35:12.429Z,100614.38
2023-01-28T05:35:44.552Z,100607.47
2023-01-28T05:36:16.187Z,100614.38
2023-01-28T05:36:47.830Z,100611.03
2023-01-28T05:37:21.454Z,100608.44
2023-01-28T05:37:53.125Z,100605.91
2023-01-28T05:38:24.842Z,100611.91
2023-01-28T05:38:56.516Z,100607.63
2023-01-28T05:39:28.189Z,100610.22
2023-01-28T05:39:59.873Z,100605.06
2023-01-28T05:40:34.406Z,100614.44
2023-01-28T05:41:06.082Z,100609.34
2023-01-28T05:41:37.690Z,100607.66
2023-01-28T05:42:09.579Z,100612.75
2023-01-28T05:42:41.234Z,100612.75
2023-01-28T05:43:12.881Z,100613.63
2023-01-28T05:43:49.533Z,100609.34
2023-01-28T05:44:21.194Z,100616.28
2023-01-28T05:44:52.854Z,100616.25
2023-01-28T05:45:24.631Z,100611.91
2023-01-28T05:45:56.301Z,100616.25
2023-01-28T05:46:27.992Z,100613.63
2023-01-28T05:46:59.688Z,100616.19
2023-01-28T05:47:31.309Z,100611.91
2023-01-28T05:48:03.016Z,100617.91
2023-01-28T05:48:34.744Z,100618.81
2023-01-28T05:49:11.132Z,100621.34
2023-01-28T05:49:42.785Z,100619.63
2023-01-28T05:50:17.627Z,100620.47
2023-01-28T05:50:49.480Z,100618.81
2023-01-28T05:51:21.156Z,100616.31
2023-01-28T05:51:53.112Z,100618.00
2023-01-28T05:52:24.782Z,100619.66
2023-01-28T05:52:56.432Z,100625.63
2023-01-28T05:53:28.088Z,100618.81
2023-01-28T05:53:59.727Z,100617.13
2023-01-28T05:54:31.364Z,100629.09
2023-01-28T05:55:03.137Z,100624.84
2023-01-28T05:55:35.438Z,100621.38
2023-01-28T05:56:07.660Z,100624.78
2023-01-28T05:56:40.350Z,100626.47
2023-01-28T05:57:12.032Z,100618.78
2023-01-28T05:57:51.886Z,100624.75
2023-01-28T05:58:23.584Z,100631.63
2023-01-28T05:58:55.235Z,100628.19
2023-01-28T05:59:26.946Z,100624.84
2023-01-28T05:59:59.792Z,100628.22
2023-01-28T06:00:31.431Z,100624.00
2023-01-28T06:01:03.144Z,100624.84
2023-01-28T06:01:35.960Z,100628.28
2023-01-28T06:02:07.609Z,100619.75
2023-01-28T06:02:40.758Z,100627.41
2023-01-28T06:03:12.730Z,100630.06
2023-01-28T06:03:44.360Z,100630.91
2023-01-28T06:04:18.876Z,100624.06
2023-01-28T06:04:50.502Z,100628.31
2023-01-28T06:05:25.056Z,100628.28
2023-01-28T06:05:56.826Z,100635.13
2023-01-28T06:06:30.898Z,100629.19
2023-01-28T06:07:05.117Z,100630.84
2023-01-28T06:07:36.768Z,100635.09
2023-01-28T06:08:08.838Z,100628.22
2023-01-28T06:08:42.889Z,100631.69
2023-01-28T06:09:17.053Z,100636.75
2023-01-28T06:09:50.929Z,100629.97
2023-01-28T06:10:22.671Z,100630.78
2023-01-28T06:10:54.326Z,100633.31
2023-01-28T06:11:25.979Z,100626.47
2023-01-28T06:11:57.636Z,100621.41
2023-01-28T06:12:29.242Z,100632.53
2023-01-28T06:13:00.962Z,100634.22
2023-01-28T06:13:32.708Z,100628.19
2023-01-28T06:14:07.160Z,100623.03
2023-01-28T06:14:38.797Z,100631.63
2023-01-28T06:15:11.056Z,100631.56
2023-01-28T06:15:42.761Z,100633.28
2023-01-28T06:16:14.486Z,100635.88
2023-01-28T06:16:47.514Z,100632.47
2023-01-28T06:17:19.165Z,100633.31
2023-01-28T06:17:50.825Z,100633.28
2023-01-28T06:18:22.478Z,100635.91
2023-01-28T06:18:54.130Z,100643.59
2023-01-28T06:19:27.831Z,100637.59
2023-01-28T06:20:02.056Z,100631.66
2023-01-28T06:20:33.887Z,100641.91
2023-01-28T06:21:05.688Z,100635.91
2023-01-28T06:21:37.430Z,100639.34
2023-01-28T06:22:09.139Z,100635.03
2023-01-28T06:22:42.964Z,100641.13
2023-01-28T06:23:14.744Z,100643.69
2023-01-28T06:23:46.416Z,100641.94
2023-01-28T06:24:18.111Z,100636.00
2023-01-28T06:24:52.699Z,100635.06
2023-01-28T06:25:24.343Z,100640.19
2023-01-28T06:25:57.179Z,100638.53
2023-01-28T06:26:31.412Z,100642.81
2023-01-28T06:27:03.048Z,100642.75
2023-01-28T06:27:34.839Z,100641.94
2023-01-28T06:28:06.502Z,100641.91
2023-01-28T06:28:38.152Z,100641.03
2023-01-28T06:29:09.831Z,100645.31
2023-01-28T06:29:43.320Z,100642.78
2023-01-28T06:30:15.390Z,100645.28
2023-01-28T06:30:51.750Z,100645.28
2023-01-28T06:31:23.439Z,100648.72
2023-01-28T06:31:55.204Z,100647.94
2023-01-28T06:32:27.193Z,100645.41
2023-01-28T06:32:59.061Z,100644.53
2023-01-28T06:33:30.722Z,100647.97
2023-01-28T06:34:02.693Z,100649.69
2023-01-28T06:34:34.321Z,100652.19
2023-01-28T06:35:06.142Z,100657.31
2023-01-28T06:35:37.795Z,100650.47
2023-01-28T06:36:12.609Z,100652.19
2023-01-28T06:36:44.773Z,100659.06
2023-01-28T06:37:16.436Z,100658.22
2023-01-28T06:37:50.667Z,100654.78
2023-01-28T06:38:22.329Z,100658.16
2023-01-28T06:38:54.003Z,100653.88
2023-01-28T06:39:29.165Z,100652.19
2023-01-28T06:40:00.823Z,100659.84
2023-01-28T06:40:32.522Z,100653.06
2023-01-28T06:41:04.297Z,100658.16
2023-01-28T06:41:35.960Z,100657.28
2023-01-28T06:42:12.560Z,100665.00
2023-01-28T06:42:46.661Z,100667.56
2023-01-28T06:43:18.401Z,100665.03
2023-01-28T06:43:50.073Z,100664.16
2023-01-28T06:44:23.527Z,100669.31
2023-01-28T06:44:55.174Z,100663.31
2023-01-28T06:45:26.781Z,100661.53
2023-01-28T06:45:58.699Z,100671.00
2023-01-28T06:46:32.673Z,100666.72
2023-01-28T06:47:12.990Z,100668.38
2023-01-28T06:47:44.640Z,100667.53